Time;durP1;ratioP1;P1;durP2;ratioP2;P2;SDS_P1;SDS_P2;PMS_P1;PMS_P2;Temp;Humidity;BMP_temperature;BMP_pressure;BME280_temperature;BME280_humidity;BME280_pressure;Samples;Min_cycle;Max_cycle;Signal;HPM_P1;HPM_P2
2022/11/03 00:02:12;;;;;;;8.00;7.20;;;11.50;51.20;;;;;;20853;6751;117024;-89
2022/11/03 00:04:42;;;;;;;8.00;6.47;;;11.20;52.00;;;;;;20864;6750;121084;-89
2022/11/03 00:07:18;;;;;;;9.80;7.97;;;10.90;52.50;;;;;;20557;6751;312694;-90
2022/11/03 00:09:55;;;;;;;9.63;7.40;;;11.10;52.50;;;;;;20828;6753;116342;-88
2022/11/03 00:12:32;;;;;;;8.33;7.33;;;11.20;52.40;;;;;;20654;6750;307779;-88
2022/11/03 00:15:07;;;;;;;8.77;7.87;;;11.20;52.40;;;;;;20647;6750;311313;-89
2022/11/03 00:17:43;;;;;;;8.93;7.10;;;11.60;51.70;;;;;;20521;6806;279147;-88
2022/11/03 00:20:18;;;;;;;9.03;7.63;;;11.80;51.20;;;;;;20673;6765;277757;-88
2022/11/03 00:22:54;;;;;;;9.93;7.73;;;12.00;50.50;;;;;;20601;6768;306895;-88
2022/11/03 00:25:29;;;;;;;18.13;10.13;;;12.10;50.00;;;;;;20838;6768;117202;-89
2022/11/03 00:28:05;;;;;;;9.70;6.82;;;11.80;50.10;;;;;;20556;6768;280513;-88
2022/11/03 00:30:41;;;;;;;7.90;6.25;;;11.70;50.40;;;;;;20772;6745;305060;-90
2022/11/03 00:33:29;;;;;;;;;;;;;;;;;;;;;
2022/11/03 00:36:09;;;;;;;;;;;;;;;;;;;;;
2022/11/03 00:38:36;;;;;;;12.10;7.43;;;11.50;51.20;;;;;;20504;6753;124525;-88
2022/11/03 00:41:10;;;;;;;14.00;8.45;;;11.30;51.40;;;;;;20634;6771;307168;-89
2022/11/03 00:43:45;;;;;;;14.50;8.10;;;11.40;51.50;;;;;;20376;6753;279633;-89
2022/11/03 00:46:29;;;;;;;10.90;7.23;;;11.70;50.70;;;;;;20570;6738;277348;-96
2022/11/03 00:48:57;;;;;;;10.20;5.87;;;11.80;50.40;;;;;;20900;6810;117153;-90
2022/11/03 00:51:41;;;;;;;8.00;6.37;;;11.60;50.70;;;;;;20658;6768;335104;-89
2022/11/03 00:54:08;;;;;;;5.75;5.25;;;11.50;50.80;;;;;;20653;6771;339389;-90
2022/11/03 00:56:44;;;;;;;6.50;5.57;;;11.70;50.60;;;;;;20775;6783;116380;-90
2022/11/03 00:59:19;;;;;;;5.93;4.83;;;11.40;50.80;;;;;;20815;6783;116325;-89
2022/11/03 01:02:04;;;;;;;8.52;5.95;;;11.00;51.40;;;;;;20625;6772;307211;-90
2022/11/03 01:07:26;;;;;;;5.47;4.97;;;10.90;51.20;;;;;;20728;6768;115965;-88
2022/11/03 01:10:01;;;;;;;8.00;4.77;;;10.50;51.70;;;;;;20864;6771;126361;-89
2022/11/03 01:12:37;;;;;;;4.57;4.10;;;10.30;52.20;;;;;;20869;6768;116862;-88
2022/11/03 01:15:22;;;;;;;6.27;4.20;;;10.10;52.60;;;;;;20871;6750;121918;-95
2022/11/03 01:17:48;;;;;;;7.20;5.10;;;9.90;53.80;;;;;;20568;6751;303626;-89
2022/11/03 01:20:25;;;;;;;5.80;4.40;;;10.10;52.60;;;;;;20935;6766;72421;-89
2022/11/03 01:23:00;;;;;;;7.43;4.90;;;10.20;52.40;;;;;;20527;6829;335694;-90
2022/11/03 01:25:36;;;;;;;6.00;4.43;;;10.40;52.70;;;;;;20960;6742;116122;-90
2022/11/03 01:28:17;;;;;;;5.03;4.57;;;10.30;52.60;;;;;;20765;6741;116466;-89
2022/11/03 01:30:47;;;;;;;6.60;4.37;;;10.10;52.90;;;;;;20934;6753;67246;-90
2022/11/03 01:33:23;;;;;;;5.60;4.50;;;9.90;54.30;;;;;;20689;6807;278854;-89
2022/11/03 01:36:08;;;;;;;;;;;;;;;;;;;;;
2022/11/03 01:38:34;;;;;;;7.07;4.00;;;10.60;52.60;;;;;;20903;6753;68605;-88
2022/11/03 01:41:13;;;;;;;5.75;4.57;;;10.60;52.20;;;;;;20604;6768;277767;-89
2022/11/03 01:44:05;;;;;;;5.97;4.27;;;10.60;52.20;;;;;;20861;6771;67967;-90
2022/11/03 01:46:41;;;;;;;3.80;3.50;;;10.50;52.00;;;;;;20791;6812;68454;-87
2022/11/03 01:49:16;;;;;;;5.10;3.47;;;10.10;52.30;;;;;;20724;6783;71105;-88
2022/11/03 01:51:59;;;;;;;6.17;4.10;;;10.10;52.90;;;;;;20624;6768;277666;-88
2022/11/03 01:54:36;;;;;;;5.83;3.87;;;10.50;52.70;;;;;;20635;6768;278363;-87
2022/11/03 01:57:11;;;;;;;4.47;4.00;;;10.40;52.70;;;;;;20594;6753;309999;-87
2022/11/03 01:59:48;;;;;;;7.80;4.53;;;10.80;52.70;;;;;;20884;6753;123027;-87
2022/11/03 02:02:24;;;;;;;5.70;4.67;;;10.60;52.60;;;;;;20731;6738;275949;-87
2022/11/03 02:04:59;;;;;;;5.10;4.20;;;10.70;52.70;;;;;;20730;6738;340992;-89
2022/11/03 02:07:51;;;;;;;5.55;4.00;;;10.90;52.60;;;;;;20585;6738;339011;-88
2022/11/03 02:10:28;;;;;;;7.07;4.47;;;11.10;52.20;;;;;;20692;6752;304882;-87
2022/11/03 02:13:04;;;;;;;4.23;3.83;;;11.30;51.00;;;;;;20907;6752;117096;-88
2022/11/03 02:15:40;;;;;;;4.10;3.70;;;11.00;51.20;;;;;;20847;6771;117582;-87
2022/11/03 02:18:15;;;;;;;6.57;4.10;;;10.60;51.90;;;;;;20588;6771;118327;-87
2022/11/03 02:20:54;;;;;;;5.03;4.30;;;10.30;52.50;;;;;;20865;6750;118176;-89
2022/11/03 02:23:59;;;;;;;5.80;4.10;;;10.00;52.90;;;;;;20618;6805;122104;-88
2022/11/03 02:26:35;;;;;;;4.40;4.03;;;9.80;54.20;;;;;;20827;6758;116845;-87
2022/11/03 02:29:13;;;;;;;6.03;4.35;;;9.60;54.50;;;;;;20705;6745;339445;-87
2022/11/03 02:31:53;;;;;;;3.70;3.50;;;9.80;53.70;;;;;;20902;6745;120746;-89
2022/11/03 02:34:40;;;;;;;4.53;4.20;;;10.00;51.80;;;;;;20632;6753;277341;-89
2022/11/03 02:37:15;;;;;;;5.30;4.20;;;10.00;51.80;;;;;;20586;6753;307293;-88
2022/11/03 02:40:07;;;;;;;4.70;4.20;;;10.30;51.20;;;;;;20644;6745;278483;-88
2022/11/03 02:42:44;;;;;;;5.17;4.50;;;10.70;50.20;;;;;;20675;6753;336563;-89
2022/11/03 02:45:19;;;;;;;4.07;3.67;;;10.70;50.20;;;;;;20537;6783;309359;-88
2022/11/03 02:47:55;;;;;;;5.27;3.80;;;10.90;49.50;;;;;;20512;6767;311433;-90
2022/11/03 02:50:31;;;;;;;3.93;3.60;;;10.60;49.60;;;;;;20851;6768;120046;-88
2022/11/03 02:53:16;;;;;;;7.60;4.22;;;10.50;49.50;;;;;;20593;6768;306562;-88
2022/11/03 02:55:59;;;;;;;8.10;4.60;;;10.40;49.40;;;;;;20632;6753;306962;-89
2022/11/03 02:58:53;;;;;;;49.53;6.40;;;10.60;49.70;;;;;;20750;6783;117206;-88
2022/11/03 03:01:38;;;;;;;47.73;6.00;;;10.20;50.20;;;;;;20779;6771;117837;-89
2022/11/03 03:04:10;;;;;;;209.10;10.35;;;9.80;52.10;;;;;;20624;6753;278988;-88
2022/11/03 03:07:05;;;;;;;402.90;14.07;;;9.90;52.30;;;;;;20792;6768;116734;-88
2022/11/03 03:09:41;;;;;;;92.90;8.97;;;9.70;52.20;;;;;;20593;6779;277321;-89
2022/11/03 03:12:16;;;;;;;277.97;12.83;;;9.80;52.40;;;;;;20534;6779;306783;-87
2022/11/03 03:14:52;;;;;;;181.80;10.50;;;10.10;51.40;;;;;;20789;6768;117081;-89
2022/11/03 03:17:44;;;;;;;587.70;22.08;;;9.90;52.40;;;;;;20506;6768;309384;-88
2022/11/03 03:20:22;;;;;;;237.93;11.03;;;10.00;51.30;;;;;;20841;6768;123816;-89
2022/11/03 03:22:57;;;;;;;37.03;5.47;;;9.80;52.30;;;;;;20841;6766;117607;-88
2022/11/03 03:25:33;;;;;;;238.37;9.60;;;9.50;53.00;;;;;;20792;6764;117122;-88
2022/11/03 03:28:15;;;;;;;123.22;7.55;;;9.20;53.40;;;;;;20417;6795;283665;-88
2022/11/03 03:30:47;;;;;;;61.90;6.00;;;9.40;52.90;;;;;;20585;6795;311406;-87
2022/11/03 03:33:23;;;;;;;440.93;15.20;;;9.70;52.40;;;;;;20612;6753;312142;-88
2022/11/03 03:35:58;;;;;;;340.33;11.77;;;10.00;51.10;;;;;;20816;6768;117801;-88
2022/11/03 03:38:40;;;;;;;275.48;10.05;;;9.80;52.20;;;;;;20626;6753;306996;-88
2022/11/03 03:41:20;;;;;;;8.83;4.90;;;9.90;51.30;;;;;;20534;6785;290112;-88
2022/11/03 03:43:53;;;;;;;4.67;4.37;;;9.90;50.50;;;;;;20605;6768;307053;-88
2022/11/03 03:46:29;;;;;;;19.47;4.50;;;10.00;49.70;;;;;;20601;6765;302851;-88
2022/11/03 03:49:04;;;;;;;5.43;3.70;;;10.10;49.20;;;;;;20618;6753;307188;-89
2022/11/03 03:51:41;;;;;;;3.57;3.33;;;9.90;51.20;;;;;;20838;6753;118309;-88
2022/11/03 03:54:16;;;;;;;5.20;4.90;;;9.80;51.10;;;;;;20815;6768;117414;-88
2022/11/03 03:56:58;;;;;;;3.23;3.03;;;9.40;52.00;;;;;;20811;6757;117430;-88
2022/11/03 03:59:31;;;;;;;18.33;3.80;;;9.20;51.80;;;;;;20621;6751;277772;-89
2022/11/03 04:02:07;;;;;;;3.33;3.23;;;9.20;51.80;;;;;;20862;6751;122753;-89
2022/11/03 04:04:42;;;;;;;53.00;4.67;;;9.20;51.80;;;;;;20826;6751;117773;-89
2022/11/03 04:10:14;;;;;;;3.90;3.70;;;8.70;52.70;;;;;;20623;6751;284852;-88
2022/11/03 04:24:15;;;;;;;60.03;5.57;;;9.00;52.00;;;;;;20853;6751;117296;-88
2022/11/03 04:26:52;;;;;;;85.80;6.20;;;8.70;52.50;;;;;;20792;6751;117009;-88
2022/11/03 04:29:30;;;;;;;31.23;4.73;;;8.30;53.40;;;;;;20842;6753;117163;-89
2022/11/03 04:32:11;;;;;;;11.43;3.60;;;8.30;53.30;;;;;;20823;6753;117641;-88
2022/11/03 04:34:48;;;;;;;3.47;3.27;;;8.20;53.70;;;;;;20832;6753;117683;-88
2022/11/03 04:37:28;;;;;;;3.40;3.20;;;8.40;54.30;;;;;;20514;6753;338909;-90
2022/11/03 04:40:03;;;;;;;19.08;4.00;;;8.40;53.60;;;;;;20641;6738;302331;-89
2022/11/03 04:42:39;;;;;;;18.10;3.63;;;8.90;52.10;;;;;;20877;6738;117147;-88
2022/11/03 04:45:28;;;;;;;240.57;167.97;;;8.80;51.90;;;;;;20880;6738;118257;-88
2022/11/03 04:48:20;;;;;;;6.70;6.30;;;8.50;52.40;;;;;;20473;6752;313570;-88
2022/11/03 04:50:59;;;;;;;16.73;3.60;;;8.70;52.00;;;;;;20827;6768;117376;-87
2022/11/03 04:53:35;;;;;;;6.30;3.60;;;8.60;52.10;;;;;;20584;6766;288596;-88
2022/11/03 04:56:14;;;;;;;3.30;3.20;;;8.80;51.90;;;;;;20629;6742;307748;-87
2022/11/03 04:58:50;;;;;;;3.47;3.27;;;9.00;50.80;;;;;;20822;6805;117853;-90
2022/11/03 05:01:26;;;;;;;3.27;3.13;;;8.60;52.00;;;;;;20717;6783;122995;-94
2022/11/03 05:04:12;;;;;;;;;;;;;;;;;;;;;
2022/11/03 05:06:38;;;;;;;2.97;2.87;;;8.20;53.20;;;;;;20623;6751;126220;-87
2022/11/03 05:09:14;;;;;;;3.42;3.22;;;8.20;52.90;;;;;;20635;6751;306442;-86
2022/11/03 05:11:49;;;;;;;15.27;3.80;;;8.40;52.40;;;;;;20839;6751;116942;-86
2022/11/03 05:14:28;;;;;;;7.62;4.25;;;8.40;52.20;;;;;;20681;6751;336907;-87
2022/11/03 05:17:02;;;;;;;3.70;3.50;;;8.60;52.30;;;;;;20809;6751;117243;-87
2022/11/03 05:19:38;;;;;;;11.23;3.53;;;8.60;52.30;;;;;;20847;6751;117131;-87
2022/11/03 05:22:18;;;;;;;12.67;3.60;;;8.40;52.80;;;;;;20882;6751;118496;-88
2022/11/03 05:25:07;;;;;;;3.70;3.50;;;8.20;53.10;;;;;;20634;6751;304846;-87
2022/11/03 05:27:33;;;;;;;3.57;3.27;;;8.40;52.60;;;;;;20681;6771;118281;-87
2022/11/03 05:30:09;;;;;;;25.88;3.95;;;8.40;52.40;;;;;;20646;6756;308709;-87
2022/11/03 05:32:45;;;;;;;8.65;3.85;;;8.50;51.60;;;;;;20653;6753;331444;-87
2022/11/03 05:35:20;;;;;;;15.50;3.83;;;8.80;50.70;;;;;;20934;6753;117416;-90
2022/11/03 05:37:56;;;;;;;3.70;3.50;;;8.40;51.80;;;;;;20760;6738;116702;-88
2022/11/03 05:40:32;;;;;;;3.42;3.25;;;8.30;51.60;;;;;;20630;6768;336406;-83
2022/11/03 05:43:08;;;;;;;5.03;3.10;;;8.50;52.10;;;;;;20788;6764;117628;-88
2022/11/03 05:45:53;;;;;;;;;;;;;;;;;;;;;
2022/11/03 05:48:26;;;;;;;11.88;4.40;;;9.00;51.00;;;;;;20476;6760;309757;-87
2022/11/03 05:51:03;;;;;;;173.87;9.60;;;8.90;50.90;;;;;;20867;6760;117580;-87
2022/11/03 05:53:42;;;;;;;94.93;6.53;;;8.80;51.10;;;;;;20895;6786;117282;-87
2022/11/03 05:56:18;;;;;;;63.03;6.87;;;8.40;51.80;;;;;;20568;6753;306539;-88
2022/11/03 05:58:54;;;;;;;210.37;9.67;;;8.80;52.00;;;;;;20661;6753;306409;-87
2022/11/03 06:01:30;;;;;;;180.27;9.50;;;8.80;52.00;;;;;;20880;6753;117248;-87
2022/11/03 06:04:19;;;;;;;354.93;14.00;;;8.80;52.10;;;;;;20839;6753;117215;-87
2022/11/03 06:06:55;;;;;;;171.23;9.67;;;8.20;53.50;;;;;;20781;6753;118009;-87
2022/11/03 06:09:30;;;;;;;279.10;12.10;;;8.20;53.60;;;;;;20779;6768;117474;-88
2022/11/03 06:12:06;;;;;;;743.77;27.90;;;8.10;54.10;;;;;;20796;6753;119717;-86
2022/11/03 06:14:42;;;;;;;735.50;22.50;;;8.00;54.30;;;;;;20815;6753;118602;-86
2022/11/03 06:17:17;;;;;;;412.73;17.67;;;7.80;54.60;;;;;;20481;6769;339710;-88
2022/11/03 06:19:53;;;;;;;440.30;16.13;;;8.10;54.70;;;;;;20725;6788;118285;-87
2022/11/03 06:22:28;;;;;;;760.10;22.47;;;8.20;54.40;;;;;;20740;6771;118415;-88
2022/11/03 06:25:31;;;;;;;706.93;22.83;;;8.10;54.80;;;;;;20758;6771;117718;-88
2022/11/03 06:30:43;;;;;;;375.27;14.73;;;7.90;55.40;;;;;;20281;6812;307398;-87
2022/11/03 06:33:20;;;;;;;236.90;11.40;;;8.20;55.70;;;;;;20877;6738;118408;-89
2022/11/03 06:36:04;;;;;;;688.25;22.83;;;8.30;55.40;;;;;;20641;6738;311841;-89
2022/11/03 06:38:39;;;;;;;520.88;21.23;;;8.50;55.30;;;;;;20621;6753;305751;-86
2022/11/03 06:41:38;;;;;;;740.27;22.10;;;8.90;54.40;;;;;;20848;6768;117362;-87
2022/11/03 06:44:14;;;;;;;609.47;20.33;;;8.90;54.30;;;;;;20832;6765;117305;-92
2022/11/03 06:46:50;;;;;;;602.03;22.33;;;8.50;54.60;;;;;;20505;6768;318438;-88
2022/11/03 06:49:29;;;;;;;491.73;18.58;;;8.70;54.60;;;;;;20677;6750;289189;-89
2022/11/03 06:52:28;;;;;;;277.83;11.07;;;9.00;53.70;;;;;;20765;6768;122804;-88
2022/11/03 06:55:07;;;;;;;29.50;5.60;;;9.00;53.70;;;;;;20324;6827;307859;-90
2022/11/03 06:57:42;;;;;;;17.73;6.80;;;9.10;53.90;;;;;;20707;6756;116259;-87
2022/11/03 07:00:20;;;;;;;7.20;6.60;;;9.00;54.00;;;;;;20583;6768;336255;-87
2022/11/03 07:03:26;;;;;;;5.35;4.82;;;9.20;54.40;;;;;;20430;6768;335795;-88
2022/11/03 07:06:09;;;;;;;6.20;5.60;;;9.80;56.10;;;;;;20840;6753;120398;-88
2022/11/03 07:08:45;;;;;;;5.43;5.03;;;9.90;55.40;;;;;;20773;6753;118500;-89
2022/11/03 07:11:35;;;;;;;5.53;5.03;;;9.90;55.70;;;;;;20798;6753;116753;-88
2022/11/03 07:14:11;;;;;;;4.33;3.80;;;9.90;55.70;;;;;;20728;6785;116941;-93
2022/11/03 07:16:48;;;;;;;4.17;3.87;;;10.00;54.80;;;;;;20753;6745;118227;-91
2022/11/03 07:19:33;;;;;;;3.93;3.57;;;10.10;55.10;;;;;;20620;6768;328214;-89
2022/11/03 07:22:29;;;;;;;7.03;3.63;;;11.10;53.00;;;;;;20859;6751;122031;-87
2022/11/03 07:24:55;;;;;;;9.57;3.33;;;11.10;53.00;;;;;;20890;6753;117066;-90
2022/11/03 07:27:37;;;;;;;29.15;3.90;;;11.30;52.70;;;;;;20502;6751;278031;-88
2022/11/03 07:30:14;;;;;;;10.87;3.50;;;11.70;50.60;;;;;;20696;6738;305334;-90
2022/11/03 07:32:52;;;;;;;41.57;4.30;;;12.20;49.20;;;;;;20590;6824;277694;-89
2022/11/03 07:35:30;;;;;;;7.37;2.77;;;12.60;47.80;;;;;;20811;6753;118174;-89
2022/11/03 07:38:11;;;;;;;13.20;3.30;;;12.60;48.10;;;;;;20458;6766;338914;-88
2022/11/03 07:40:46;;;;;;;25.27;4.00;;;12.80;47.10;;;;;;20887;6757;120450;-90
2022/11/03 07:43:22;;;;;;;6.50;2.93;;;12.80;47.50;;;;;;20881;6801;117288;-89
2022/11/03 07:46:14;;;;;;;;;;;;;;;;;;;;;
2022/11/03 07:48:39;;;;;;;35.58;4.55;;;12.70;47.20;;;;;;20554;6753;335234;-87
2022/11/03 07:51:22;;;;;;;6.73;3.37;;;13.10;46.50;;;;;;20873;6768;116806;-88
2022/11/03 07:54:18;;;;;;;49.60;4.20;;;13.00;46.60;;;;;;20870;6750;122441;-89
2022/11/03 07:56:53;;;;;;;4.07;3.50;;;12.80;47.30;;;;;;20584;6768;284028;-88
2022/11/03 07:59:35;;;;;;;6.03;3.78;;;13.00;47.10;;;;;;20674;6795;324005;-88
2022/11/03 08:02:14;;;;;;;28.70;3.80;;;13.30;46.50;;;;;;20903;6753;117489;-89
2022/11/03 08:04:50;;;;;;;5.63;3.40;;;13.30;46.70;;;;;;20982;6738;117236;-92
2022/11/03 08:07:26;;;;;;;3.30;3.10;;;13.10;47.20;;;;;;20827;6768;117277;-90
2022/11/03 08:10:14;;;;;;;;;;;;;;;;;;;;;
2022/11/03 08:13:33;;;;;;;3.50;3.30;;;13.10;47.50;;;;;;20361;6768;119966;-95
2022/11/03 08:15:48;;;;;;;;;;;;;;;;;;;;;
2022/11/03 08:20:50;;;;;;;18.03;4.33;;;13.00;48.30;;;;;;20379;6810;69015;-91
2022/11/03 08:23:36;;;;;;;;;;;;;;;;;;;;;
2022/11/03 08:26:01;;;;;;;3.67;3.33;;;12.90;48.60;;;;;;20403;6760;121761;-92
2022/11/03 08:31:48;;;;;;;;;;;;;;;;;;;;;
2022/11/03 09:52:23;;;;;;;4.03;3.73;;;16.90;44.90;;;;;;21435;6522;67468;-87
2022/11/03 09:54:48;;;;;;;5.07;4.77;;;16.60;45.20;;;;;;20879;6802;117223;-87
2022/11/03 09:57:14;;;;;;;4.50;4.30;;;16.10;45.60;;;;;;20559;6802;313055;-88
2022/11/03 09:59:39;;;;;;;5.40;4.90;;;16.10;45.80;;;;;;20482;6852;279808;-87
2022/11/03 10:02:06;;;;;;;4.70;4.30;;;16.20;45.50;;;;;;20423;6862;313944;-86
2022/11/03 10:04:32;;;;;;;4.20;3.87;;;16.30;45.40;;;;;;20669;6844;118094;-89
2022/11/03 10:06:58;;;;;;;4.20;3.90;;;16.10;45.90;;;;;;20474;6856;317128;-93
2022/11/03 10:09:24;;;;;;;4.60;4.30;;;16.00;45.80;;;;;;20453;6867;336280;-88
2022/11/03 10:11:49;;;;;;;5.57;4.40;;;16.20;45.50;;;;;;20650;6867;117433;-88
2022/11/03 10:14:15;;;;;;;4.50;4.10;;;15.50;46.80;;;;;;20687;6852;119343;-88
2022/11/03 10:16:41;;;;;;;4.40;4.10;;;15.50;46.10;;;;;;20451;6868;279587;-89
2022/11/03 10:19:13;;;;;;;4.72;4.32;;;15.50;46.80;;;;;;20666;6867;117481;-89
2022/11/03 10:21:40;;;;;;;4.20;3.80;;;15.30;46.80;;;;;;20717;6852;118038;-89
2022/11/03 10:24:10;;;;;;;4.72;4.32;;;15.10;47.30;;;;;;20489;6852;338069;-91
2022/11/03 10:26:48;;;;;;;4.13;3.83;;;15.20;47.80;;;;;;20732;6852;117469;-91
2022/11/03 10:29:22;;;;;;;4.65;4.30;;;15.20;47.70;;;;;;20487;6852;308146;-88
2022/11/03 10:31:50;;;;;;;4.50;4.10;;;15.30;47.70;;;;;;20412;6858;308881;-89
2022/11/03 10:34:23;;;;;;;4.55;4.10;;;15.60;47.20;;;;;;20715;6848;118186;-90
2022/11/03 10:36:50;;;;;;;4.40;4.00;;;15.50;47.10;;;;;;20630;6869;118130;-89
2022/11/03 10:39:22;;;;;;;5.00;4.60;;;15.20;47.40;;;;;;20683;6854;119414;-95
2022/11/03 10:41:54;;;;;;;5.77;4.27;;;15.00;47.80;;;;;;20672;6862;118978;-90
2022/11/03 10:44:19;;;;;;;4.50;4.10;;;14.80;48.10;;;;;;20698;6854;117979;-89
2022/11/03 10:47:02;;;;;;;4.43;4.03;;;14.70;48.30;;;;;;20709;6854;117645;-90
2022/11/03 10:49:31;;;;;;;4.65;4.30;;;14.60;48.60;;;;;;20450;6869;339088;-91
2022/11/03 10:52:13;;;;;;;5.50;5.07;;;15.00;48.70;;;;;;20673;6854;117646;-90
2022/11/03 10:54:40;;;;;;;4.40;4.03;;;15.10;48.40;;;;;;20661;6855;116905;-87
2022/11/03 10:57:14;;;;;;;4.85;4.40;;;15.00;48.50;;;;;;20511;6847;342374;-89
2022/11/03 10:59:41;;;;;;;4.30;3.90;;;15.30;48.70;;;;;;20598;6859;67887;-89
2022/11/03 11:02:12;;;;;;;4.27;3.87;;;15.40;48.50;;;;;;20690;6858;117108;-88
2022/11/03 11:04:40;;;;;;;4.33;3.93;;;15.40;48.70;;;;;;20686;6859;115982;-86
2022/11/03 11:07:03;;;;;;;4.18;3.85;;;15.30;48.80;;;;;;20723;6846;116429;-91
2022/11/03 11:09:40;;;;;;;4.47;4.07;;;15.20;49.00;;;;;;20432;6859;312348;-88
2022/11/03 11:12:02;;;;;;;4.50;4.10;;;15.50;48.90;;;;;;20440;6846;284246;-88
2022/11/03 11:14:28;;;;;;;5.00;4.47;;;15.90;48.40;;;;;;20521;6847;282610;-88
2022/11/03 11:16:53;;;;;;;4.72;3.97;;;16.30;47.70;;;;;;20479;6847;278508;-87
2022/11/03 11:19:19;;;;;;;5.83;4.47;;;16.50;47.20;;;;;;20686;6847;118797;-87
2022/11/03 11:21:46;;;;;;;4.30;4.00;;;16.40;47.30;;;;;;20692;6847;118702;-87
2022/11/03 11:24:11;;;;;;;4.50;4.10;;;16.10;47.50;;;;;;20725;6847;117589;-87
2022/11/03 11:26:37;;;;;;;4.85;4.45;;;15.80;47.90;;;;;;20453;6859;314565;-87
2022/11/03 11:29:28;;;;;;;5.20;3.90;;;15.90;47.90;;;;;;20689;6859;117422;-87
2022/11/03 11:32:01;;;;;;;4.90;4.50;;;15.90;47.90;;;;;;20443;6859;279715;-88
2022/11/03 11:34:33;;;;;;;5.12;4.72;;;16.10;47.70;;;;;;20381;6859;307635;-87
2022/11/03 11:36:59;;;;;;;5.30;4.80;;;16.40;47.20;;;;;;20667;6859;117153;-86
2022/11/03 11:39:42;;;;;;;4.57;4.27;;;16.30;47.30;;;;;;20477;6859;307590;-90
2022/11/03 11:42:13;;;;;;;4.13;3.73;;;16.40;47.40;;;;;;20649;6860;117376;-88
2022/11/03 11:44:42;;;;;;;4.32;4.00;;;16.30;47.40;;;;;;20465;6860;280257;-87
2022/11/03 11:47:32;;;;;;;4.17;3.80;;;16.50;47.40;;;;;;20676;6860;117137;-88
2022/11/03 11:50:04;;;;;;;4.50;4.10;;;16.40;47.30;;;;;;20442;6860;337652;-91
2022/11/03 11:52:30;;;;;;;4.37;3.80;;;16.50;46.90;;;;;;20470;6860;279602;-87
2022/11/03 11:54:56;;;;;;;4.40;4.00;;;17.00;46.10;;;;;;20466;6860;282044;-87
2022/11/03 11:57:21;;;;;;;10.03;7.50;;;17.00;46.10;;;;;;20673;6860;117987;-88
2022/11/03 11:59:47;;;;;;;10.98;9.95;;;16.80;46.20;;;;;;20443;6860;308255;-88
2022/11/03 12:02:16;;;;;;;8.80;7.57;;;16.70;46.40;;;;;;20680;6860;118045;-87
2022/11/03 12:04:42;;;;;;;7.20;6.67;;;16.70;46.40;;;;;;20675;6860;117643;-86
2022/11/03 12:07:07;;;;;;;6.15;5.55;;;16.40;46.70;;;;;;20464;6860;278621;-89
2022/11/03 12:09:38;;;;;;;5.83;5.37;;;16.40;46.60;;;;;;20672;6860;122151;-86
2022/11/03 12:12:03;;;;;;;6.17;4.97;;;16.40;46.60;;;;;;20652;6860;118439;-87
2022/11/03 12:14:29;;;;;;;4.77;4.37;;;16.20;46.90;;;;;;20677;6858;118382;-85
2022/11/03 12:16:54;;;;;;;4.73;4.33;;;16.10;47.50;;;;;;20470;6859;278591;-85
2022/11/03 12:19:40;;;;;;;5.12;4.72;;;16.10;47.50;;;;;;20465;6859;279721;-85
2022/11/03 12:22:10;;;;;;;5.60;4.50;;;16.70;47.20;;;;;;20451;6859;315173;-85
2022/11/03 12:24:49;;;;;;;4.27;3.73;;;16.60;47.20;;;;;;20686;6859;117101;-87
2022/11/03 12:27:25;;;;;;;4.07;3.77;;;16.60;47.20;;;;;;20474;6859;279094;-85
2022/11/03 12:29:50;;;;;;;3.67;3.37;;;16.70;47.70;;;;;;20664;6859;120916;-85
2022/11/03 12:32:16;;;;;;;5.57;5.00;;;16.50;47.70;;;;;;20469;6859;338424;-85
2022/11/03 12:34:41;;;;;;;5.13;4.63;;;16.50;48.10;;;;;;20685;6859;117247;-86
2022/11/03 12:37:08;;;;;;;4.45;4.05;;;16.10;48.40;;;;;;20691;6859;117864;-86
2022/11/03 12:39:33;;;;;;;4.57;3.90;;;16.10;48.50;;;;;;20688;6859;117802;-86
2022/11/03 12:42:00;;;;;;;4.17;3.77;;;15.80;49.20;;;;;;20665;6859;118438;-87
2022/11/03 12:44:25;;;;;;;4.30;3.90;;;15.80;49.20;;;;;;20471;6859;309050;-86
2022/11/03 12:46:51;;;;;;;5.32;4.80;;;16.40;49.50;;;;;;20458;6859;308205;-88
2022/11/03 12:49:17;;;;;;;4.62;4.22;;;16.40;49.50;;;;;;20461;6859;337193;-86
2022/11/03 12:51:43;;;;;;;4.95;4.45;;;16.70;48.90;;;;;;20467;6860;307720;-86
2022/11/03 12:54:08;;;;;;;5.12;4.25;;;16.90;49.10;;;;;;20662;6860;117999;-86
2022/11/03 12:56:34;;;;;;;4.87;4.57;;;16.70;48.40;;;;;;20678;6860;117772;-85
2022/11/03 12:58:59;;;;;;;4.35;4.03;;;16.40;48.70;;;;;;20675;6860;118040;-85
2022/11/03 13:01:26;;;;;;;5.03;4.20;;;15.90;49.20;;;;;;20677;6860;117789;-86
2022/11/03 13:03:51;;;;;;;4.67;4.20;;;15.90;49.30;;;;;;20448;6860;283185;-85
2022/11/03 13:06:17;;;;;;;4.60;4.20;;;16.10;49.30;;;;;;20459;6860;320033;-85
2022/11/03 13:08:42;;;;;;;6.03;4.40;;;16.40;48.80;;;;;;20681;6860;117321;-86
2022/11/03 13:12:30;;;;;;;4.97;4.55;;;16.30;49.20;;;;;;20466;6860;279824;-86
2022/11/03 13:13:33;;;;;;;5.37;4.93;;;16.50;48.60;;;;;;20401;6860;308897;-85
2022/11/03 13:15:59;;;;;;;5.23;4.50;;;16.70;48.40;;;;;;20640;6860;117375;-85
2022/11/03 13:18:25;;;;;;;5.12;4.62;;;16.60;48.40;;;;;;20685;6860;116526;-87
2022/11/03 13:20:53;;;;;;;5.80;5.17;;;16.10;49.00;;;;;;20686;6860;118262;-87
2022/11/03 13:23:20;;;;;;;4.93;4.53;;;16.00;49.50;;;;;;20685;6860;117500;-86
2022/11/03 13:25:45;;;;;;;5.57;5.07;;;15.90;49.30;;;;;;20665;6858;117946;-89
2022/11/03 13:28:11;;;;;;;5.37;4.87;;;15.80;49.60;;;;;;20695;6859;120752;-86
2022/11/03 13:30:37;;;;;;;5.37;4.87;;;15.80;50.00;;;;;;20690;6859;121945;-86
2022/11/03 13:33:03;;;;;;;6.30;5.70;;;15.60;50.10;;;;;;20472;6859;308516;-86
2022/11/03 13:35:28;;;;;;;7.20;6.50;;;15.90;50.70;;;;;;20689;6859;117283;-89
2022/11/03 13:37:55;;;;;;;7.57;6.80;;;16.00;50.40;;;;;;20449;6859;277615;-87
2022/11/03 13:40:20;;;;;;;7.43;6.72;;;16.20;50.60;;;;;;20485;6859;343887;-87
2022/11/03 13:42:46;;;;;;;11.27;10.23;;;16.50;50.00;;;;;;20507;6859;337092;-86
2022/11/03 13:45:11;;;;;;;7.62;6.95;;;16.80;49.80;;;;;;20762;6859;117198;-87
2022/11/03 13:47:37;;;;;;;7.93;7.20;;;16.70;49.70;;;;;;20538;6859;308085;-88
2022/11/03 13:50:03;;;;;;;7.80;7.20;;;16.70;49.70;;;;;;20727;6859;120290;-87
2022/11/03 13:52:28;;;;;;;7.97;7.17;;;16.60;49.70;;;;;;20525;6859;279251;-87
2022/11/03 13:54:54;;;;;;;8.17;7.53;;;16.60;50.10;;;;;;20537;6859;307386;-87
2022/11/03 13:57:20;;;;;;;7.90;7.10;;;16.80;49.80;;;;;;20528;6859;316279;-87
2022/11/03 13:59:45;;;;;;;6.10;5.60;;;16.90;49.30;;;;;;20730;6859;117140;-86
2022/11/03 14:02:11;;;;;;;6.57;5.90;;;16.80;49.30;;;;;;20717;6859;67999;-87
2022/11/03 14:04:37;;;;;;;6.62;5.97;;;16.40;50.20;;;;;;20489;6860;337652;-87
2022/11/03 14:07:08;;;;;;;5.77;5.27;;;16.50;49.80;;;;;;20697;6860;117033;-89
2022/11/03 14:09:34;;;;;;;6.13;5.60;;;16.40;49.60;;;;;;20509;6860;309494;-88
2022/11/03 14:14:45;;;;;;;7.50;6.80;;;16.50;50.00;;;;;;20471;6860;307419;-89
2022/11/03 14:17:11;;;;;;;7.17;4.93;;;16.50;49.30;;;;;;20688;6860;117167;-88
2022/11/03 14:19:36;;;;;;;5.37;4.87;;;16.40;49.20;;;;;;20467;6860;320702;-89
2022/11/03 14:22:02;;;;;;;4.97;4.57;;;16.50;48.70;;;;;;20655;6860;117284;-88
2022/11/03 14:24:28;;;;;;;5.27;4.80;;;16.40;48.70;;;;;;20469;6860;313159;-88
2022/11/03 14:26:56;;;;;;;4.30;4.00;;;16.50;49.00;;;;;;20691;6860;117233;-89
2022/11/03 14:29:22;;;;;;;4.80;4.40;;;16.40;48.90;;;;;;20692;6860;117669;-86
2022/11/03 14:31:47;;;;;;;5.10;4.60;;;16.10;49.10;;;;;;20466;6860;307637;-88
2022/11/03 14:34:13;;;;;;;4.80;4.40;;;16.20;49.30;;;;;;20476;6860;278952;-88
2022/11/03 14:36:39;;;;;;;4.77;4.27;;;16.40;48.90;;;;;;20452;6858;283310;-88
2022/11/03 14:39:04;;;;;;;5.15;4.20;;;16.70;48.60;;;;;;20676;6859;118071;-88
2022/11/03 14:44:15;;;;;;;5.12;4.55;;;16.60;48.40;;;;;;20467;6859;282483;-88
2022/11/03 14:46:42;;;;;;;8.77;7.95;;;16.90;47.90;;;;;;20465;6859;279124;-88
2022/11/03 14:49:08;;;;;;;5.70;5.30;;;16.90;47.80;;;;;;20458;6859;281931;-89
2022/11/03 14:51:33;;;;;;;6.05;5.55;;;17.00;47.30;;;;;;20464;6859;281830;-88
2022/11/03 14:53:58;;;;;;;5.30;4.90;;;17.10;47.00;;;;;;20446;6859;311011;-88
2022/11/03 14:56:24;;;;;;;6.15;5.30;;;17.20;46.60;;;;;;20462;6859;341358;-88
2022/11/03 14:58:50;;;;;;;5.70;5.20;;;17.20;46.50;;;;;;20464;6859;283193;-88
2022/11/03 15:01:15;;;;;;;5.07;4.73;;;17.30;46.40;;;;;;20673;6859;117197;-88
2022/11/03 15:03:41;;;;;;;9.07;7.57;;;17.00;46.70;;;;;;20675;6859;119531;-88
2022/11/03 15:06:07;;;;;;;6.72;4.93;;;16.60;47.20;;;;;;20657;6859;117796;-88
2022/11/03 15:08:33;;;;;;;5.28;4.87;;;16.30;47.60;;;;;;20466;6859;278168;-88
2022/11/03 15:11:00;;;;;;;5.40;4.90;;;16.30;47.50;;;;;;20467;6859;308569;-89
2022/11/03 15:13:27;;;;;;;4.53;4.10;;;16.60;46.90;;;;;;20677;6859;117773;-88